Stations météo

réclame
Mon MeteoGroup
Ayamonte, Espagne (8381): Température de l'air & dewpoint: 11.12.2017 20:00:00 - 17.12.2017 20:00:00 (CET)Ayamonte, Espagne (8381): Vitesse du vent & gusts: 11.12.2017 20:00:00 - 17.12.2017 20:00:00 (CET)Ayamonte, Espagne (8381): Direction du vent: 11.12.2017 20:00:00 - 17.12.2017 20:00:00 (CET)Ayamonte, Espagne (8381): reduced air pressure: 11.12.2017 20:00:00 - 17.12.2017 20:00:00 (CET)Ayamonte, Espagne (8381): Quantités de précipitations: 11.12.2017 20:00:00 - 17.12.2017 20:00:00 (CET)
Date & Time tt [°C] td [°C] ff [km/h] ff [knt] fx [km/h] fx [knt] dd ppp [hPa] rr [mm]
17.12.2017 20:00:00 - - - - - - - - -
17.12.2017 19:00:00 10,1 -1,7 2 1 8 4 NE 1027,9 -
17.12.2017 18:00:00 13,1 -0,3 1 1 15 8 NE 1027,6 0,0
17.12.2017 17:00:00 15,8 0,4 9 5 19 10 ENE 1027,1 0,0
17.12.2017 16:00:00 16,6 1,5 6 4 24 13 ENE 1026,9 0,0
17.12.2017 15:00:00 16,1 1,1 13 7 29 16 ENE 1026,8 0,0
17.12.2017 14:00:00 15,6 1,3 16 9 29 16 E 1027,3 0,0
17.12.2017 13:00:00 15,1 1,9 11 6 28 15 ENE 1028,3 -
17.12.2017 12:00:00 13,6 2,5 13 7 27 15 ENE 1028,6 0,0
17.12.2017 11:00:00 10,5 3,9 5 3 15 8 NNW 1028,4 0,0
17.12.2017 10:00:00 8,3 3,4 4 2 11 6 NNW 1027,9 0,0
17.12.2017 09:00:00 5,0 1,9 2 1 14 8 NNW 1027,3 0,0
17.12.2017 08:00:00 5,3 2,1 3 1 13 7 NNW 1026,8 0,0
17.12.2017 07:00:00 6,2 2,5 5 3 13 7 NNW 1026,5 -
17.12.2017 06:00:00 6,5 2,5 5 3 17 9 NNW 1025,9 0,0
17.12.2017 05:00:00 7,0 2,7 4 2 16 9 NNW 1025,8 0,0
17.12.2017 04:00:00 7,1 2,7 4 2 12 6 NNW 1025,6 0,0
17.12.2017 03:00:00 7,5 1,9 4 2 13 7 NNW 1025,2 0,0
17.12.2017 02:00:00 7,5 2,1 4 2 10 6 NNW 1024,9 0,0
17.12.2017 01:00:00 8,2 2,7 4 2 15 8 NNW 1024,9 -
17.12.2017 00:00:00 8,5 2,9 3 1 11 6 N 1024,6 0,0
16.12.2017 23:00:00 8,6 2,9 2 1 10 5 N 1024,2 0,0
16.12.2017 22:00:00 9,7 2,9 3 2 13 7 N 1023,9 0,0
16.12.2017 21:00:00 10,2 2,3 3 1 14 8 NNW 1023,1 0,0
16.12.2017 20:00:00 10,9 2,5 3 2 16 8 N 1022,4 0,0
16.12.2017 19:00:00 11,8 1,7 7 4 21 11 NNW 1021,7 -
16.12.2017 18:00:00 13,5 2,1 8 5 20 11 NNW 1021,1 0,0
16.12.2017 17:00:00 14,7 2,5 8 4 25 13 NNW 1020,8 0,0
16.12.2017 16:00:00 15,7 3,2 11 6 26 14 NNW 1020,2 0,0
16.12.2017 15:00:00 15,6 3,4 9 5 23 12 NNW 1020,2 0,0
16.12.2017 14:00:00 15,5 3,9 8 5 23 12 NNW 1020,6 0,0
16.12.2017 13:00:00 14,8 4,5 6 4 19 10 N 1021,1 -
16.12.2017 12:00:00 13,4 4,5 5 3 20 11 N 1021,4 0,0
16.12.2017 11:00:00 10,5 3,8 10 5 18 10 NNW 1021,2 0,0
16.12.2017 10:00:00 8,7 3,6 9 5 21 11 NNW 1020,1 0,0
16.12.2017 09:00:00 7,5 3,6 7 4 18 10 NNW 1018,9 0,0
16.12.2017 08:00:00 7,5 3,6 5 3 33 18 N 1018,0 0,0
16.12.2017 07:00:00 7,9 3,9 10 6 25 14 NNW 1016,8 -
16.12.2017 06:00:00 7,9 4,1 10 5 23 12 NNW 1016,4 0,0
16.12.2017 05:00:00 8,3 4,6 10 6 24 13 NNW 1016,5 0,0
16.12.2017 04:00:00 8,5 5,1 10 5 21 11 NNW 1016,9 0,0
16.12.2017 03:00:00 8,8 5,0 10 5 27 14 NNW 1016,3 0,0
16.12.2017 02:00:00 9,6 5,8 10 5 24 13 NNW 1016,2 0,0
16.12.2017 01:00:00 10,5 6,7 13 7 29 16 NNW 1016,3 -
16.12.2017 00:00:00 11,4 6,7 17 9 35 19 NNW 1015,7 0,0
15.12.2017 23:00:00 12,0 7,3 11 6 35 19 NNW 1015,6 0,0
15.12.2017 22:00:00 13,0 8,5 17 9 32 18 NNW 1015,2 0,1
15.12.2017 21:00:00 14,1 11,1 11 6 32 18 NNW 1015,2 0,0
15.12.2017 20:00:00 16,3 13,4 6 4 12 6 W 1014,0 0,0
15.12.2017 19:00:00 16,4 12,3 4 2 11 6 W 1013,7 -
15.12.2017 18:00:00 17,6 12,5 5 3 13 7 NW 1013,6 0,0
15.12.2017 17:00:00 18,3 14,2 8 4 30 16 WSW 1013,3 0,0
15.12.2017 16:00:00 19,5 14,3 14 8 32 17 WSW 1013,5 0,0
15.12.2017 15:00:00 19,8 14,1 17 9 29 16 WSW 1014,1 0,0
15.12.2017 14:00:00 18,6 14,5 16 9 27 15 WSW 1015,1 0,0
15.12.2017 13:00:00 18,0 14,5 13 7 24 13 SW 1016,2 -
15.12.2017 12:00:00 18,1 14,2 9 5 19 11 WSW 1017,7 0,0
15.12.2017 11:00:00 15,9 15,7 6 3 12 6 WSW 1017,9 0,0
15.12.2017 10:00:00 13,1 13,0 1 0 6 3 NW 1017,8 0,0
15.12.2017 09:00:00 11,9 11,8 0 0 6 3 N 1017,7 0,0
15.12.2017 08:00:00 11,8 11,7 4 2 8 4 WNW 1017,3 0,0
15.12.2017 07:00:00 10,9 10,8 3 1 8 5 W 1017,1 -
15.12.2017 06:00:00 10,3 10,2 3 2 6 3 W 1018,0 0,0
15.12.2017 05:00:00 10,4 10,0 0 0 5 3 WSW 1018,6 0,0
15.12.2017 04:00:00 11,2 10,9 1 0 5 3 N 1019,3 0,0
15.12.2017 03:00:00 12,4 11,9 3 2 9 5 W 1019,5 0,0
15.12.2017 02:00:00 12,5 12,0 3 1 10 5 W 1019,3 0,0
15.12.2017 01:00:00 12,3 11,9 4 2 8 5 WSW 1020,1 -
15.12.2017 00:00:00 11,8 11,3 4 2 6 3 W 1020,7 0,0
14.12.2017 23:00:00 12,7 12,2 2 1 8 5 NW 1021,2 0,0
14.12.2017 22:00:00 12,5 12,0 1 1 5 3 NW 1021,5 0,0
14.12.2017 21:00:00 13,4 13,0 1 0 4 2 WNW 1021,8 0,0
14.12.2017 20:00:00 15,1 14,4 0 0 14 8 NW 1021,8 0,0
14.12.2017 19:00:00 15,8 14,7 7 4 14 8 W 1021,9 -
14.12.2017 18:00:00 16,2 14,7 9 5 16 9 WSW 1021,8 0,0
14.12.2017 17:00:00 16,7 14,9 8 4 16 8 SW 1022,1 0,0
14.12.2017 16:00:00 16,9 14,5 6 3 22 12 WSW 1022,5 0,0
14.12.2017 15:00:00 16,9 13,1 13 7 22 12 SW 1022,9 0,0
14.12.2017 14:00:00 16,2 11,3 7 4 15 8 S 1024,1 0,0
14.12.2017 13:00:00 16,0 9,2 8 4 14 8 SSE 1025,1 -
14.12.2017 12:00:00 15,8 9,9 3 2 9 5 SW 1026,2 0,0
14.12.2017 11:00:00 12,5 9,3 0 0 4 2 NW 1026,5 0,0
14.12.2017 10:00:00 10,3 9,0 0 0 3 2 N 1026,1 0,0
14.12.2017 09:00:00 9,8 8,5 0 0 3 1 NW 1026,0 0,0
14.12.2017 08:00:00 9,4 7,7 1 1 4 2 NE 1025,9 0,0
14.12.2017 07:00:00 9,2 7,3 0 0 5 3 NNW 1026,0 -
14.12.2017 06:00:00 8,8 7,0 3 2 9 5 NNW 1026,3 0,0
14.12.2017 05:00:00 8,1 6,4 5 3 9 5 NNW 1026,6 0,0
14.12.2017 04:00:00 6,6 5,0 3 2 8 4 NNW 1026,7 0,0
14.12.2017 03:00:00 7,7 5,0 0 0 9 5 N 1026,9 0,0
14.12.2017 02:00:00 8,2 4,8 3 2 10 6 N 1027,1 0,0
14.12.2017 01:00:00 8,1 5,5 4 2 12 6 NNW 1027,4 -
14.12.2017 00:00:00 7,5 5,6 1 1 11 6 NNW 1027,5 0,0
13.12.2017 23:00:00 8,1 5,9 3 2 11 6 NW 1027,6 0,0
13.12.2017 22:00:00 8,0 5,6 1 1 7 4 WNW 1027,6 0,0
13.12.2017 21:00:00 8,9 5,9 4 2 7 4 NW 1027,4 0,0
13.12.2017 20:00:00 9,3 5,1 4 2 6 4 NW 1027,2 0,0
13.12.2017 19:00:00 9,7 2,5 1 1 4 2 NW 1026,9 -
13.12.2017 18:00:00 13,0 2,9 2 1 9 5 SSE 1026,7 0,0
13.12.2017 17:00:00 15,1 2,7 4 2 12 7 SSE 1026,9 0,0
13.12.2017 16:00:00 16,3 3,4 5 3 13 7 ESE 1027,0 0,0
13.12.2017 15:00:00 16,0 2,1 6 3 16 9 E 1027,0 0,0
13.12.2017 14:00:00 16,0 2,7 9 5 17 9 E 1027,6 0,0
13.12.2017 13:00:00 15,3 4,3 8 4 16 9 ENE 1028,5 -
13.12.2017 12:00:00 13,2 5,8 5 3 13 7 ENE 1028,9 0,0
13.12.2017 11:00:00 10,0 5,1 5 3 10 5 NW 1028,5 0,0
13.12.2017 10:00:00 8,4 5,1 4 2 10 6 N 1027,9 0,0
13.12.2017 09:00:00 6,3 4,6 3 2 10 5 N 1027,8 0,0
13.12.2017 08:00:00 5,4 3,2 4 2 14 7 NNW 1027,3 0,0
13.12.2017 07:00:00 6,4 3,8 4 2 12 7 NNW 1026,6 -
13.12.2017 06:00:00 6,5 3,6 2 1 13 7 NNW 1026,1 0,0
13.12.2017 05:00:00 7,1 3,9 5 3 13 7 NNW 1025,8 0,0
13.12.2017 04:00:00 7,4 3,4 4 2 14 7 NNW 1025,5 0,0
13.12.2017 03:00:00 6,5 2,7 1 1 9 5 N 1025,1 0,0
13.12.2017 02:00:00 7,2 3,2 0 0 11 6 NE 1025,2 0,0
13.12.2017 01:00:00 7,9 3,0 3 2 9 5 N 1024,9 -
13.12.2017 00:00:00 7,7 2,9 1 0 11 6 NE 1024,4 0,0
12.12.2017 23:00:00 8,3 2,7 2 1 10 6 N 1023,7 0,0
12.12.2017 22:00:00 8,5 1,9 1 0 13 7 NNE 1023,2 0,0
12.12.2017 21:00:00 10,1 2,5 8 4 16 9 NNW 1022,6 0,0
12.12.2017 20:00:00 10,4 1,5 6 3 14 7 NNW 1021,9 0,0
12.12.2017 19:00:00 11,1 1,7 6 3 15 8 NNW 1021,1 -
12.12.2017 18:00:00 12,6 1,3 10 6 26 14 NNW 1020,6 0,0
12.12.2017 17:00:00 14,0 1,7 10 6 23 13 NW 1019,7 0,0
12.12.2017 16:00:00 14,7 1,5 10 5 24 13 NNW 1019,1 0,0
12.12.2017 15:00:00 14,8 2,7 6 4 24 13 NNW 1018,6 0,0
12.12.2017 14:00:00 14,0 3,2 10 5 20 11 NNW 1018,8 0,0
12.12.2017 13:00:00 12,9 3,6 6 3 22 12 NNW 1018,8 -
12.12.2017 12:00:00 11,3 3,6 8 4 24 13 NNW 1019,1 0,0
12.12.2017 11:00:00 9,8 3,6 7 4 30 16 NNW 1018,7 0,0
12.12.2017 10:00:00 8,4 3,4 11 6 29 16 NNW 1017,4 0,0
12.12.2017 09:00:00 6,9 3,0 6 3 21 12 NNW 1016,5 0,0
12.12.2017 08:00:00 7,1 2,9 12 6 27 15 NNW 1016,0 0,0
12.12.2017 07:00:00 7,6 3,2 12 6 27 15 NNW 1014,8 -
12.12.2017 06:00:00 7,7 3,4 11 6 23 12 NNW 1013,4 0,0
12.12.2017 05:00:00 8,0 3,4 12 7 27 15 NNW 1013,2 0,0
12.12.2017 04:00:00 7,8 3,4 8 4 27 15 NNW 1012,8 0,0
12.12.2017 03:00:00 8,4 3,9 11 6 28 15 NNW 1011,8 0,0
12.12.2017 02:00:00 8,6 3,9 13 7 32 17 NW 1011,3 0,0
12.12.2017 01:00:00 8,9 4,1 11 6 25 14 NNW 1011,0 -
12.12.2017 00:00:00 9,5 3,9 11 6 27 14 NNW 1010,3 0,0
11.12.2017 23:00:00 10,1 4,3 11 6 24 13 NW 1009,3 0,0
11.12.2017 22:00:00 10,6 5,0 9 5 26 14 NW 1008,6 0,0
11.12.2017 21:00:00 10,7 5,5 6 4 22 12 NW 1007,6 0,0
11.12.2017 20:00:00 11,1 5,8 6 4 18 10 WNW 1006,7 0,0

tt = Température de l'air
td = dewpoint
ff = Vitesse du vent
fx = gusts
dd = Direction du vent
ppp = reduced air pressure
rr = Quantités de précipitations

stations d'obs. à proximité

  • TOP-25 (most viewed):